createdAt,value
2022-11-16T00:00:36.708Z,-5.22
2022-11-16T00:02:39.708Z,-5.20
2022-11-16T00:04:42.559Z,-5.21
2022-11-16T00:06:46.687Z,-5.23
2022-11-16T00:09:10.286Z,-5.20
2022-11-16T00:11:15.811Z,-5.21
2022-11-16T00:13:18.682Z,-5.19
2022-11-16T00:15:21.686Z,-5.21
2022-11-16T00:17:24.396Z,-5.16
2022-11-16T00:19:27.857Z,-5.15
2022-11-16T00:21:31.668Z,-5.17
2022-11-16T00:23:38.721Z,-5.17
2022-11-16T00:25:41.407Z,-5.21
2022-11-16T00:27:44.987Z,-5.16
2022-11-16T00:29:47.633Z,-5.15
2022-11-16T00:31:51.280Z,-5.14
2022-11-16T00:33:54.101Z,-5.17
2022-11-16T00:35:57.309Z,-5.14
2022-11-16T00:38:00.014Z,-5.14
2022-11-16T00:40:02.838Z,-5.12
2022-11-16T00:42:06.705Z,-5.15
2022-11-16T00:44:10.189Z,-5.11
2022-11-16T00:46:12.956Z,-5.13
2022-11-16T00:48:15.802Z,-5.11
2022-11-16T00:50:18.478Z,-5.13
2022-11-16T00:52:21.207Z,-5.14
2022-11-16T00:54:24.690Z,-5.09
2022-11-16T00:56:27.997Z,-5.10
2022-11-16T00:58:31.439Z,-5.09
2022-11-16T01:00:34.314Z,-5.08
2022-11-16T01:02:37.003Z,-5.05
2022-11-16T01:04:39.927Z,-5.04
2022-11-16T01:06:42.628Z,-5.03
2022-11-16T01:08:46.102Z,-5.03
2022-11-16T01:10:48.872Z,-5.02
2022-11-16T01:12:53.050Z,-5.00
2022-11-16T01:14:55.792Z,-5.01
2022-11-16T01:16:58.543Z,-5.05
2022-11-16T01:19:01.358Z,-5.05
2022-11-16T01:21:06.889Z,-5.08
2022-11-16T01:23:09.682Z,-5.13
2022-11-16T01:25:13.793Z,-5.18
2022-11-16T01:27:16.493Z,-5.19
2022-11-16T01:29:19.402Z,-5.16
2022-11-16T01:31:22.042Z,-5.13
2022-11-16T01:33:25.278Z,-5.14
2022-11-16T01:35:28.056Z,-5.10
2022-11-16T01:37:30.971Z,-5.10
2022-11-16T01:39:33.624Z,-5.17
2022-11-16T01:41:36.482Z,-5.10
2022-11-16T01:44:03.337Z,-5.12
2022-11-16T01:46:06.102Z,-5.14
2022-11-16T01:48:14.885Z,-5.14
2022-11-16T01:50:18.635Z,-5.15
2022-11-16T01:52:25.238Z,-5.12
2022-11-16T01:54:31.346Z,-5.13
2022-11-16T01:56:37.505Z,-5.15
2022-11-16T01:58:41.618Z,-5.15
2022-11-16T02:00:44.491Z,-5.13
2022-11-16T02:02:47.251Z,-5.12
2022-11-16T02:04:52.875Z,-5.12
2022-11-16T02:07:19.219Z,-5.07
2022-11-16T02:09:55.960Z,-5.13
2022-11-16T02:12:19.536Z,-5.15
2022-11-16T02:14:52.857Z,-5.11
2022-11-16T02:17:21.901Z,-5.05
2022-11-16T02:20:06.170Z,-5.07
2022-11-16T02:22:43.128Z,-5.10
2022-11-16T02:25:13.187Z,-5.06
2022-11-16T02:27:21.457Z,-5.12
2022-11-16T02:29:37.904Z,-5.19
2022-11-16T02:32:15.442Z,-5.14
2022-11-16T02:34:21.110Z,-5.15
2022-11-16T02:36:25.857Z,-5.17
2022-11-16T02:38:33.134Z,-5.19
2022-11-16T02:40:39.621Z,-5.24
2022-11-16T02:43:10.153Z,-5.22
2022-11-16T02:45:19.687Z,-5.27
2022-11-16T02:47:29.329Z,-5.26
2022-11-16T02:49:35.423Z,-5.25
2022-11-16T02:51:40.307Z,-5.32
2022-11-16T02:54:00.868Z,-5.37
2022-11-16T02:56:03.561Z,-5.44
2022-11-16T02:58:10.045Z,-5.40
2022-11-16T03:00:25.296Z,-5.43
2022-11-16T03:02:30.852Z,-5.46
2022-11-16T03:04:40.094Z,-5.53
2022-11-16T03:06:45.739Z,-5.56
2022-11-16T03:09:05.396Z,-5.63
2022-11-16T03:11:28.098Z,-5.67
2022-11-16T03:13:34.199Z,-5.70
2022-11-16T03:15:40.523Z,-5.79
2022-11-16T03:17:50.315Z,-5.76
2022-11-16T03:20:09.085Z,-5.75
2022-11-16T03:22:35.641Z,-5.78
2022-11-16T03:24:38.982Z,-5.82
2022-11-16T03:27:10.861Z,-5.88
2022-11-16T03:29:38.220Z,-5.99
2022-11-16T03:31:50.089Z,-5.98
2022-11-16T03:33:57.747Z,-5.99
2022-11-16T03:36:36.670Z,-6.07
2022-11-16T03:38:42.010Z,-6.19
2022-11-16T03:40:47.194Z,-6.32
2022-11-16T03:42:50.711Z,-6.40
2022-11-16T03:44:55.258Z,-6.47
2022-11-16T03:46:57.919Z,-6.58
2022-11-16T03:49:02.043Z,-6.67
2022-11-16T03:51:06.056Z,-6.75
2022-11-16T03:53:08.719Z,-6.78
2022-11-16T03:55:11.378Z,-6.83
2022-11-16T03:57:18.415Z,-6.90
2022-11-16T03:59:21.313Z,-6.96
2022-11-16T04:01:24.037Z,-7.01
2022-11-16T04:03:26.737Z,-7.04
2022-11-16T04:05:47.701Z,-7.06
2022-11-16T04:08:09.062Z,-7.10
2022-11-16T04:10:30.572Z,-7.11
2022-11-16T04:12:52.048Z,-7.13
2022-11-16T04:15:13.303Z,-7.16
2022-11-16T04:17:35.909Z,-7.20
2022-11-16T04:19:58.450Z,-7.26
2022-11-16T04:22:23.894Z,-7.30
2022-11-16T04:24:29.509Z,-7.35
2022-11-16T04:26:51.605Z,-7.36
2022-11-16T04:28:54.332Z,-7.35
2022-11-16T04:31:18.508Z,-7.33
2022-11-16T04:33:39.761Z,-7.33
2022-11-16T04:36:00.731Z,-7.35
2022-11-16T04:38:03.407Z,-7.38
2022-11-16T04:40:06.689Z,-7.40
2022-11-16T04:42:22.468Z,-7.39
2022-11-16T04:44:29.869Z,-7.42
2022-11-16T04:46:51.078Z,-7.43
2022-11-16T04:48:53.808Z,-7.40
2022-11-16T04:50:56.456Z,-7.40
2022-11-16T04:52:59.259Z,-7.40
2022-11-16T04:55:01.964Z,-7.44
2022-11-16T04:57:05.946Z,-7.37
2022-11-16T04:59:08.818Z,-7.32
2022-11-16T05:01:11.745Z,-7.13
2022-11-16T05:03:14.657Z,-6.93
2022-11-16T05:05:17.681Z,-6.82
2022-11-16T05:07:22.024Z,-6.85
2022-11-16T05:09:24.925Z,-6.89
2022-11-16T05:11:28.739Z,-6.92
2022-11-16T05:13:31.378Z,-6.95
2022-11-16T05:15:34.046Z,-6.99
2022-11-16T05:17:36.768Z,-7.00
2022-11-16T05:19:58.372Z,-6.96
2022-11-16T05:22:00.979Z,-6.94
2022-11-16T05:24:22.418Z,-6.92
2022-11-16T05:26:25.188Z,-6.94
2022-11-16T05:28:27.899Z,-6.94
2022-11-16T05:30:30.623Z,-6.91
2022-11-16T05:32:33.356Z,-6.89
2022-11-16T05:34:36.084Z,-6.89
2022-11-16T05:36:38.729Z,-6.86
2022-11-16T05:38:41.458Z,-6.88
2022-11-16T05:40:44.171Z,-6.85
2022-11-16T05:42:46.870Z,-6.81
2022-11-16T05:44:49.565Z,-6.76
2022-11-16T05:46:52.584Z,-6.74
2022-11-16T05:48:55.341Z,-6.69
2022-11-16T05:51:04.782Z,-6.69
2022-11-16T05:53:15.936Z,-6.64
2022-11-16T05:55:19.361Z,-6.63
2022-11-16T05:57:21.982Z,-6.59
2022-11-16T05:59:25.111Z,-6.53
2022-11-16T06:01:27.965Z,-6.51
2022-11-16T06:03:31.494Z,-6.49
2022-11-16T06:05:40.471Z,-6.46
2022-11-16T06:07:43.517Z,-6.42
2022-11-16T06:09:46.299Z,-6.39
2022-11-16T06:11:49.025Z,-6.39
2022-11-16T06:13:51.722Z,-6.36
2022-11-16T06:15:54.397Z,-6.27
2022-11-16T06:17:57.057Z,-6.28
2022-11-16T06:20:00.002Z,-6.39
2022-11-16T06:22:02.591Z,-6.35
2022-11-16T06:24:09.277Z,-6.31
2022-11-16T06:26:12.260Z,-6.29
2022-11-16T06:28:14.969Z,-6.26
2022-11-16T06:30:18.490Z,-6.29
2022-11-16T06:32:21.170Z,-6.24
2022-11-16T06:34:24.966Z,-6.17
2022-11-16T06:36:27.753Z,-6.09
2022-11-16T06:38:30.546Z,-6.02
2022-11-16T06:40:34.139Z,-6.12
2022-11-16T06:42:36.956Z,-6.14
2022-11-16T06:44:39.595Z,-6.08
2022-11-16T06:46:42.222Z,-6.04
2022-11-16T06:48:44.849Z,-6.03
2022-11-16T06:50:52.315Z,-6.01
2022-11-16T06:52:55.286Z,-6.02
2022-11-16T06:54:58.143Z,-6.04
2022-11-16T06:57:00.930Z,-5.94
2022-11-16T06:59:03.620Z,-5.94
2022-11-16T07:01:08.228Z,-5.92
2022-11-16T07:03:11.290Z,-5.93
2022-11-16T07:05:14.038Z,-5.94
2022-11-16T07:07:16.760Z,-5.83
2022-11-16T07:09:19.454Z,-5.77
2022-11-16T07:11:25.074Z,-5.75
2022-11-16T07:13:27.679Z,-5.75
2022-11-16T07:15:30.885Z,-5.70
2022-11-16T07:17:34.402Z,-5.70
2022-11-16T07:19:37.238Z,-5.73
2022-11-16T07:21:40.063Z,-5.68
2022-11-16T07:23:43.183Z,-5.59
2022-11-16T07:25:47.418Z,-5.48
2022-11-16T07:27:50.067Z,-5.41
2022-11-16T07:29:52.676Z,-5.33
2022-11-16T07:31:55.610Z,-5.26
2022-11-16T07:33:58.288Z,-5.19
2022-11-16T07:36:09.243Z,-5.08
2022-11-16T07:38:16.771Z,-5.06
2022-11-16T07:40:20.898Z,-5.00
2022-11-16T07:42:23.516Z,-4.96
2022-11-16T07:44:26.203Z,-4.95
2022-11-16T07:46:46.177Z,-4.89
2022-11-16T07:48:49.997Z,-4.81
2022-11-16T07:50:52.846Z,-4.77
2022-11-16T07:52:56.395Z,-4.75
2022-11-16T07:54:59.168Z,-4.70
2022-11-16T07:57:02.049Z,-4.64
2022-11-16T07:59:06.197Z,-4.64
2022-11-16T08:01:15.212Z,-4.58
2022-11-16T08:03:23.343Z,-4.57
2022-11-16T08:05:27.292Z,-4.46
2022-11-16T08:07:30.013Z,-4.37
2022-11-16T08:09:32.766Z,-4.31
2022-11-16T08:11:35.390Z,-4.18
2022-11-16T08:13:40.222Z,-4.17
2022-11-16T08:15:42.847Z,-4.11
2022-11-16T08:17:45.454Z,-4.03
2022-11-16T08:19:48.171Z,-3.99
2022-11-16T08:21:51.316Z,-3.97
2022-11-16T08:23:58.412Z,-3.99
2022-11-16T08:26:07.665Z,-3.97
2022-11-16T08:28:10.685Z,-4.07
2022-11-16T08:30:13.778Z,-4.17
2022-11-16T08:32:16.393Z,-4.12
2022-11-16T08:34:19.093Z,-4.11
2022-11-16T08:36:21.874Z,-4.16
2022-11-16T08:38:24.474Z,-4.20
2022-11-16T08:40:27.284Z,-4.11
2022-11-16T08:42:29.941Z,-4.12
2022-11-16T08:44:32.580Z,-4.16
2022-11-16T08:46:35.366Z,-4.16
2022-11-16T08:48:38.275Z,-4.09
2022-11-16T08:51:02.291Z,-3.99
2022-11-16T08:53:03.570Z,-3.96
2022-11-16T08:55:06.958Z,-3.92
2022-11-16T08:57:09.689Z,-3.83
2022-11-16T08:59:12.820Z,-3.77
2022-11-16T09:01:19.926Z,-3.75
2022-11-16T09:03:22.603Z,-3.71
2022-11-16T09:05:25.412Z,-3.72
2022-11-16T09:07:28.052Z,-3.66
2022-11-16T09:09:30.901Z,-3.62
2022-11-16T09:11:33.607Z,-3.59
2022-11-16T09:13:36.242Z,-3.56
2022-11-16T09:15:38.894Z,-3.51
2022-11-16T09:17:41.588Z,-3.55
2022-11-16T09:19:44.274Z,-3.48
2022-11-16T09:21:46.920Z,-3.41
2022-11-16T09:23:50.153Z,-3.34
2022-11-16T09:25:53.242Z,-3.34
2022-11-16T09:27:56.106Z,-3.33
2022-11-16T09:29:58.733Z,-3.47
2022-11-16T09:32:02.387Z,-3.58
2022-11-16T09:34:05.561Z,-3.51
2022-11-16T09:36:09.646Z,-3.62
2022-11-16T09:38:17.496Z,-3.63
2022-11-16T09:40:35.740Z,-3.63
2022-11-16T09:42:49.244Z,-3.62
2022-11-16T09:44:54.580Z,-3.50
2022-11-16T09:47:00.115Z,-3.35
2022-11-16T09:49:17.312Z,-3.25
2022-11-16T09:51:23.933Z,-3.09
2022-11-16T09:53:29.819Z,-3.02
2022-11-16T09:56:10.807Z,-3.10
2022-11-16T09:58:22.477Z,-2.98
2022-11-16T10:00:25.339Z,-2.84
2022-11-16T10:02:34.933Z,-2.71
2022-11-16T10:05:10.891Z,-2.57
2022-11-16T10:07:35.725Z,-2.43
2022-11-16T10:09:38.749Z,-2.43
2022-11-16T10:11:52.647Z,-2.41
2022-11-16T10:14:10.680Z,-2.41
2022-11-16T10:16:33.104Z,-2.38
2022-11-16T10:18:54.317Z,-2.34
2022-11-16T10:21:06.074Z,-2.29
2022-11-16T10:23:20.719Z,-2.30
2022-11-16T10:25:29.871Z,-2.37
2022-11-16T10:31:22.442Z,-2.69
2022-11-16T10:33:27.141Z,-2.83
2022-11-16T10:35:54.217Z,-2.92
2022-11-16T10:38:02.879Z,-2.98
2022-11-16T10:40:19.299Z,-3.03
2022-11-16T10:42:37.098Z,-3.18
2022-11-16T10:44:44.169Z,-3.26
2022-11-16T10:47:06.612Z,-3.41
2022-11-16T10:49:11.788Z,-3.49
2022-11-16T10:51:14.615Z,-3.60
2022-11-16T10:53:29.862Z,-3.62
2022-11-16T10:55:32.565Z,-3.62
2022-11-16T10:57:57.282Z,-3.69
2022-11-16T10:59:59.973Z,-3.72
2022-11-16T11:02:25.199Z,-3.80
2022-11-16T11:04:32.773Z,-3.83
2022-11-16T11:06:35.476Z,-3.90
2022-11-16T11:08:38.113Z,-4.03
2022-11-16T11:10:42.349Z,-4.09
2022-11-16T11:13:17.932Z,-4.14
2022-11-16T11:15:27.059Z,-4.19
2022-11-16T11:17:31.620Z,-4.19
2022-11-16T11:19:34.378Z,-4.23
2022-11-16T11:21:37.033Z,-4.26
2022-11-16T11:23:52.600Z,-4.23
2022-11-16T11:25:58.585Z,-4.25
2022-11-16T11:28:19.209Z,-4.28
2022-11-16T11:30:23.011Z,-4.30
2022-11-16T11:32:38.725Z,-4.26
2022-11-16T11:34:45.920Z,-4.30
2022-11-16T11:36:57.375Z,-4.37
2022-11-16T11:39:08.472Z,-4.42
2022-11-16T11:41:19.227Z,-4.36
2022-11-16T11:43:24.701Z,-4.37
2022-11-16T11:45:48.849Z,-4.39
2022-11-16T11:47:59.043Z,-4.48
2022-11-16T11:50:24.854Z,-4.56
2022-11-16T11:53:02.543Z,-4.58
2022-11-16T11:55:07.998Z,-4.58
2022-11-16T11:57:15.831Z,-4.48
2022-11-16T11:59:22.226Z,-4.38
2022-11-16T12:08:56.413Z,-4.53
2022-11-16T12:11:26.546Z,-4.61
2022-11-16T12:13:51.360Z,-4.71
2022-11-16T12:16:18.655Z,-4.79
2022-11-16T12:19:04.637Z,-4.86
2022-11-16T12:21:15.410Z,-4.93
2022-11-16T12:23:26.572Z,-5.00
2022-11-16T12:25:58.446Z,-5.06
2022-11-16T12:28:18.900Z,-5.14
2022-11-16T12:30:24.933Z,-5.25
2022-11-16T12:32:53.676Z,-5.33
2022-11-16T12:35:21.129Z,-5.39
2022-11-16T12:37:39.544Z,-5.46
2022-11-16T12:39:58.802Z,-5.55
2022-11-16T12:42:04.212Z,-5.58
2022-11-16T12:44:15.182Z,-5.66
2022-11-16T12:46:42.209Z,-5.64
2022-11-16T12:49:24.338Z,-5.65
2022-11-16T12:51:44.999Z,-5.84
2022-11-16T12:54:14.521Z,-5.66
2022-11-16T12:56:36.087Z,-5.64
2022-11-16T12:59:23.099Z,-5.64
2022-11-16T13:01:36.999Z,-5.62
2022-11-16T13:03:49.746Z,-5.64
2022-11-16T13:06:01.868Z,-5.64
2022-11-16T13:08:34.511Z,-5.68
2022-11-16T13:10:46.345Z,-5.69
2022-11-16T13:13:21.854Z,-5.69
2022-11-16T13:15:33.795Z,-5.73
2022-11-16T13:17:39.927Z,-5.76
2022-11-16T13:19:46.578Z,-5.78
2022-11-16T13:22:03.276Z,-5.78
2022-11-16T13:24:27.260Z,-5.81
2022-11-16T13:26:41.649Z,-5.81
2022-11-16T13:29:09.495Z,-5.91
2022-11-16T13:31:38.721Z,-5.89
2022-11-16T13:33:50.747Z,-5.97
2022-11-16T13:35:53.985Z,-5.94
2022-11-16T13:37:56.547Z,-5.91
2022-11-16T13:39:59.260Z,-5.90
2022-11-16T13:42:13.260Z,-5.91
2022-11-16T13:44:20.176Z,-5.92
2022-11-16T13:46:54.309Z,-5.93
2022-11-16T13:48:48.332Z,-5.94
2022-11-16T13:50:57.572Z,-5.97
2022-11-16T13:55:33.852Z,-5.99
2022-11-16T13:57:36.559Z,-5.99
2022-11-16T13:59:39.275Z,-6.01
2022-11-16T14:02:03.706Z,-5.97
2022-11-16T14:04:41.989Z,-5.97
2022-11-16T14:06:57.733Z,-6.01
2022-11-16T14:09:00.864Z,-6.01
2022-11-16T14:11:04.654Z,-5.99
2022-11-16T14:13:48.677Z,-5.98
2022-11-16T14:16:20.073Z,-5.96
2022-11-16T14:18:35.307Z,-5.98
2022-11-16T14:20:58.635Z,-5.98
2022-11-16T14:23:46.852Z,-5.99
2022-11-16T14:26:17.344Z,-6.09
2022-11-16T14:28:36.642Z,-6.13
2022-11-16T14:31:09.234Z,-6.20
2022-11-16T14:33:24.098Z,-6.25
2022-11-16T14:35:35.158Z,-6.25
2022-11-16T14:37:42.566Z,-6.26
2022-11-16T14:39:45.613Z,-6.24
2022-11-16T14:41:48.321Z,-6.20
2022-11-16T14:43:54.444Z,-6.16
2022-11-16T14:46:02.312Z,-6.14
2022-11-16T14:48:15.122Z,-6.07
2022-11-16T14:50:23.360Z,-6.04
2022-11-16T14:52:41.035Z,-6.02
2022-11-16T14:54:57.304Z,-5.99
2022-11-16T14:57:06.083Z,-5.98
2022-11-16T14:59:17.470Z,-5.97
2022-11-16T15:01:23.121Z,-5.99
2022-11-16T15:03:29.266Z,-5.94
2022-11-16T15:05:36.842Z,-5.92
2022-11-16T15:07:43.005Z,-5.93
2022-11-16T15:09:52.316Z,-5.91
2022-11-16T15:12:15.195Z,-5.89
2022-11-16T15:14:24.930Z,-5.83
2022-11-16T15:16:27.484Z,-5.83
2022-11-16T15:18:30.372Z,-5.83
2022-11-16T15:20:36.832Z,-5.84
2022-11-16T15:22:45.387Z,-5.84
2022-11-16T15:24:58.308Z,-5.86
2022-11-16T15:27:06.953Z,-5.91
2022-11-16T15:29:17.067Z,-5.99
2022-11-16T15:31:22.708Z,-6.18
2022-11-16T15:33:38.643Z,-6.11
2022-11-16T15:35:41.409Z,-6.18
2022-11-16T15:37:44.056Z,-6.27
2022-11-16T15:39:46.760Z,-6.30
2022-11-16T15:41:50.299Z,-6.38
2022-11-16T15:44:13.197Z,-6.44
2022-11-16T15:46:17.169Z,-6.49
2022-11-16T15:48:22.869Z,-6.56
2022-11-16T15:50:25.461Z,-6.59
2022-11-16T15:52:50.569Z,-6.62
2022-11-16T15:55:03.877Z,-6.66
2022-11-16T15:57:12.173Z,-6.70
2022-11-16T15:59:23.631Z,-6.68
2022-11-16T16:01:26.380Z,-6.67
2022-11-16T16:03:33.122Z,-6.63
2022-11-16T16:05:41.291Z,-6.60
2022-11-16T16:07:45.499Z,-6.55
2022-11-16T16:09:48.139Z,-6.49
2022-11-16T16:11:52.391Z,-6.44
2022-11-16T16:14:01.388Z,-6.45
2022-11-16T16:16:36.455Z,-6.38
2022-11-16T16:18:45.754Z,-6.37
2022-11-16T16:20:49.410Z,-6.40
2022-11-16T16:22:52.576Z,-6.37
2022-11-16T16:24:55.795Z,-6.33
2022-11-16T16:26:58.610Z,-6.33
2022-11-16T16:29:01.700Z,-6.31
2022-11-16T16:31:04.349Z,-6.30
2022-11-16T16:33:06.941Z,-6.33
2022-11-16T16:35:17.892Z,-6.29
2022-11-16T16:37:21.333Z,-6.29
2022-11-16T16:39:24.003Z,-6.26
2022-11-16T16:41:26.836Z,-6.27
2022-11-16T16:43:30.369Z,-6.23
2022-11-16T16:45:38.939Z,-6.22
2022-11-16T16:47:41.515Z,-6.21
2022-11-16T16:49:44.300Z,-6.21
2022-11-16T16:51:46.844Z,-6.22
2022-11-16T16:53:49.390Z,-6.22
2022-11-16T16:55:52.589Z,-6.22
2022-11-16T16:57:57.598Z,-6.23
2022-11-16T17:00:00.282Z,-6.23
2022-11-16T17:02:02.945Z,-6.18
2022-11-16T17:04:05.515Z,-6.19
2022-11-16T17:06:08.201Z,-6.18
2022-11-16T17:08:10.847Z,-6.19
2022-11-16T17:10:13.625Z,-6.23
2022-11-16T17:12:16.231Z,-6.24
2022-11-16T17:14:21.633Z,-6.27
2022-11-16T17:16:24.296Z,-6.28
2022-11-16T17:18:26.867Z,-6.29
2022-11-16T17:20:29.443Z,-6.33
2022-11-16T17:22:33.639Z,-6.36
2022-11-16T17:24:36.365Z,-6.41
2022-11-16T17:26:39.139Z,-6.46
2022-11-16T17:28:42.096Z,-6.55
2022-11-16T17:30:44.735Z,-6.60
2022-11-16T17:32:47.419Z,-6.65
2022-11-16T17:34:50.019Z,-6.73
2022-11-16T17:36:52.790Z,-6.81
2022-11-16T17:38:55.333Z,-6.89
2022-11-16T17:41:14.727Z,-6.94
2022-11-16T17:43:17.489Z,-7.00
2022-11-16T17:45:20.493Z,-7.06
2022-11-16T17:47:23.089Z,-7.10
2022-11-16T17:49:25.783Z,-7.13
2022-11-16T17:51:30.108Z,-7.18
2022-11-16T17:53:36.668Z,-7.20
2022-11-16T17:55:39.384Z,-7.24
2022-11-16T17:57:42.027Z,-7.28
2022-11-16T17:59:44.560Z,-7.32
2022-11-16T18:01:47.242Z,-7.39
2022-11-16T18:03:49.857Z,-7.40
2022-11-16T18:05:52.645Z,-7.45
2022-11-16T18:07:55.241Z,-7.48
2022-11-16T18:09:57.891Z,-7.51
2022-11-16T18:12:00.663Z,-7.57
2022-11-16T18:14:05.717Z,-7.54
2022-11-16T18:16:13.926Z,-7.58
2022-11-16T18:18:16.778Z,-7.60
2022-11-16T18:20:19.486Z,-7.62
2022-11-16T18:22:22.155Z,-7.68
2022-11-16T18:24:24.862Z,-7.68
2022-11-16T18:26:27.787Z,-7.72
2022-11-16T18:28:30.601Z,-7.79
2022-11-16T18:30:33.199Z,-7.75
2022-11-16T18:32:36.688Z,-7.77
2022-11-16T18:34:39.266Z,-7.82
2022-11-16T18:36:42.409Z,-7.84
2022-11-16T18:38:46.117Z,-7.83
2022-11-16T18:41:03.509Z,-7.85
2022-11-16T18:43:07.018Z,-7.89
2022-11-16T18:45:10.271Z,-7.89
2022-11-16T18:47:12.978Z,-7.90
2022-11-16T18:49:16.100Z,-7.91
2022-11-16T18:51:20.101Z,-7.93
2022-11-16T18:53:22.933Z,-7.95
2022-11-16T18:55:25.556Z,-7.98
2022-11-16T18:57:28.268Z,-8.01
2022-11-16T18:59:30.856Z,-7.98
2022-11-16T19:01:33.542Z,-8.00
2022-11-16T19:03:36.465Z,-8.04
2022-11-16T19:05:39.629Z,-8.05
2022-11-16T19:07:42.272Z,-8.06
2022-11-16T19:09:44.916Z,-8.09
2022-11-16T19:11:47.695Z,-8.07
2022-11-16T19:13:54.449Z,-8.10
2022-11-16T19:15:57.113Z,-8.09
2022-11-16T19:18:20.434Z,-8.11
2022-11-16T19:20:22.863Z,-8.13
2022-11-16T19:22:25.473Z,-8.13
2022-11-16T19:24:28.024Z,-8.14
2022-11-16T19:26:30.591Z,-8.13
2022-11-16T19:28:41.142Z,-8.13
2022-11-16T19:30:43.725Z,-8.12
2022-11-16T19:32:46.346Z,-8.11
2022-11-16T19:34:48.907Z,-8.08
2022-11-16T19:36:51.495Z,-8.05
2022-11-16T19:38:54.279Z,-8.04
2022-11-16T19:40:56.876Z,-8.04
2022-11-16T19:42:59.693Z,-7.99
2022-11-16T19:45:02.453Z,-7.96
2022-11-16T19:47:06.529Z,-7.93
2022-11-16T19:49:13.475Z,-7.91
2022-11-16T19:51:23.198Z,-7.90
2022-11-16T19:53:27.129Z,-7.85
2022-11-16T19:55:29.703Z,-7.85
2022-11-16T19:57:32.533Z,-7.81
2022-11-16T19:59:35.483Z,-7.79
2022-11-16T20:01:38.186Z,-7.78
2022-11-16T20:03:42.072Z,-7.77
2022-11-16T20:05:44.687Z,-7.73
2022-11-16T20:07:51.101Z,-7.70
2022-11-16T20:09:55.188Z,-7.69
2022-11-16T20:11:59.646Z,-7.69
2022-11-16T20:14:06.862Z,-7.72
2022-11-16T20:16:11.995Z,-7.71
2022-11-16T20:18:15.092Z,-7.75
2022-11-16T20:20:18.215Z,-7.77
2022-11-16T20:22:20.973Z,-7.79
2022-11-16T20:24:23.990Z,-7.86
2022-11-16T20:26:29.666Z,-7.88
2022-11-16T20:28:41.225Z,-7.95
2022-11-16T20:30:48.198Z,-7.99
2022-11-16T20:33:09.007Z,-8.02
2022-11-16T20:35:29.005Z,-8.04
2022-11-16T20:37:50.232Z,-8.08
2022-11-16T20:40:00.307Z,-8.11
2022-11-16T20:42:04.786Z,-8.14
2022-11-16T20:44:10.611Z,-8.13
2022-11-16T20:46:17.408Z,-8.09
2022-11-16T20:48:20.068Z,-8.09
2022-11-16T20:50:22.668Z,-8.04
2022-11-16T20:52:25.502Z,-8.05
2022-11-16T20:54:28.726Z,-8.01
2022-11-16T20:56:31.531Z,-8.00
2022-11-16T20:58:34.979Z,-8.05
2022-11-16T21:00:37.807Z,-8.08
2022-11-16T21:02:40.376Z,-8.12
2022-11-16T21:04:42.941Z,-8.14
2022-11-16T21:06:45.816Z,-8.18
2022-11-16T21:08:48.533Z,-8.21
2022-11-16T21:10:51.128Z,-8.22
2022-11-16T21:13:12.381Z,-8.22
2022-11-16T21:15:15.092Z,-8.26
2022-11-16T21:17:17.781Z,-8.27
2022-11-16T21:19:20.345Z,-8.34
2022-11-16T21:21:23.271Z,-8.32
2022-11-16T21:23:30.959Z,-8.33
2022-11-16T21:25:33.531Z,-8.36
2022-11-16T21:27:36.148Z,-8.34
2022-11-16T21:29:38.723Z,-8.35
2022-11-16T21:31:41.329Z,-8.37
2022-11-16T21:33:44.952Z,-8.38
2022-11-16T21:35:47.561Z,-8.42
2022-11-16T21:37:50.120Z,-8.44
2022-11-16T21:39:52.701Z,-8.43
2022-11-16T21:41:55.257Z,-8.49
2022-11-16T21:43:57.865Z,-8.56
2022-11-16T21:46:06.135Z,-8.57
2022-11-16T21:48:09.008Z,-8.60
2022-11-16T21:52:34.325Z,-8.60
2022-11-16T21:55:00.028Z,-8.57
2022-11-16T21:57:02.654Z,-8.51
2022-11-16T21:59:05.327Z,-8.48
2022-11-16T22:01:08.591Z,-8.44
2022-11-16T22:03:11.439Z,-8.42
2022-11-16T22:05:46.403Z,-8.37
2022-11-16T22:07:48.964Z,-8.39
2022-11-16T22:09:51.550Z,-8.35
2022-11-16T22:11:54.103Z,-8.34
2022-11-16T22:13:56.701Z,-8.32
2022-11-16T22:15:59.330Z,-8.34
2022-11-16T22:18:02.384Z,-8.33
2022-11-16T22:20:05.474Z,-8.34
2022-11-16T22:22:08.490Z,-8.32
2022-11-16T22:24:11.334Z,-8.33
2022-11-16T22:26:14.934Z,-8.37
2022-11-16T22:28:21.514Z,-8.39
2022-11-16T22:30:24.385Z,-8.45
2022-11-16T22:32:27.065Z,-8.45
2022-11-16T22:34:29.700Z,-8.50
2022-11-16T22:36:32.265Z,-8.53
2022-11-16T22:38:34.930Z,-8.56
2022-11-16T22:40:37.567Z,-8.57
2022-11-16T22:42:40.173Z,-8.66
2022-11-16T22:44:42.918Z,-8.60
2022-11-16T22:46:45.646Z,-8.61
2022-11-16T22:48:48.313Z,-8.63
2022-11-16T22:50:50.837Z,-8.63
2022-11-16T22:52:53.482Z,-8.63
2022-11-16T22:54:56.032Z,-8.65
2022-11-16T22:56:58.596Z,-8.63
2022-11-16T22:59:02.672Z,-8.62
2022-11-16T23:01:07.570Z,-8.65
2022-11-16T23:03:10.183Z,-8.65
2022-11-16T23:05:13.123Z,-8.67
2022-11-16T23:07:15.755Z,-8.69
2022-11-16T23:09:18.372Z,-8.72
2022-11-16T23:11:41.872Z,-8.70
2022-11-16T23:14:03.887Z,-8.74
2022-11-16T23:16:06.672Z,-8.73
2022-11-16T23:18:09.354Z,-8.74
2022-11-16T23:20:30.715Z,-8.73
2022-11-16T23:22:52.049Z,-8.62
2022-11-16T23:25:13.196Z,-8.52
2022-11-16T23:27:30.791Z,-8.42
2022-11-16T23:29:33.695Z,-8.32
2022-11-16T23:31:37.195Z,-8.21
2022-11-16T23:33:45.732Z,-8.13
2022-11-16T23:35:48.261Z,-8.06
2022-11-16T23:37:56.206Z,-7.99
2022-11-16T23:39:58.846Z,-7.93
2022-11-16T23:42:19.932Z,-7.90
2022-11-16T23:44:22.599Z,-7.85
2022-11-16T23:46:30.423Z,-7.82
2022-11-16T23:48:32.994Z,-7.81
2022-11-16T23:50:36.013Z,-7.77
2022-11-16T23:52:38.585Z,-7.75
2022-11-16T23:54:41.337Z,-7.77
2022-11-16T23:56:44.054Z,-7.79
2022-11-16T23:58:47.475Z,-7.76
